createdAt,value
2018-09-17T00:01:16.334Z,7.77
2018-09-17T00:03:44.524Z,9.80
2018-09-17T00:06:12.696Z,13.43
2018-09-17T00:08:40.862Z,9.20
2018-09-17T00:11:09.029Z,11.70
2018-09-17T00:13:37.322Z,12.70
2018-09-17T00:16:05.529Z,11.40
2018-09-17T00:18:33.686Z,13.47
2018-09-17T00:21:01.853Z,14.03
2018-09-17T00:23:30.022Z,16.63
2018-09-17T00:25:58.189Z,11.43
2018-09-17T00:28:26.347Z,11.73
2018-09-17T00:30:54.523Z,12.10
2018-09-17T00:33:22.691Z,12.20
2018-09-17T00:35:50.861Z,8.63
2018-09-17T00:38:19.017Z,9.03
2018-09-17T00:40:47.182Z,12.30
2018-09-17T00:43:15.338Z,8.53
2018-09-17T00:45:43.514Z,16.43
2018-09-17T00:48:11.677Z,11.50
2018-09-17T00:50:39.837Z,11.67
2018-09-17T00:53:08.006Z,8.33
2018-09-17T00:55:36.182Z,13.63
2018-09-17T00:58:04.360Z,8.77
2018-09-17T01:00:32.517Z,14.63
2018-09-17T01:03:00.699Z,9.87
2018-09-17T01:05:28.870Z,11.37
2018-09-17T01:07:57.035Z,9.40
2018-09-17T01:10:25.215Z,8.33
2018-09-17T01:12:53.374Z,12.03
2018-09-17T01:15:21.545Z,11.27
2018-09-17T01:17:49.701Z,8.90
2018-09-17T01:20:17.866Z,8.67
2018-09-17T01:22:46.030Z,11.70
2018-09-17T01:25:14.190Z,12.60
2018-09-17T01:27:42.393Z,12.10
2018-09-17T01:30:10.565Z,7.20
2018-09-17T01:32:38.757Z,10.93
2018-09-17T01:35:06.931Z,8.23
2018-09-17T01:37:35.111Z,19.63
2018-09-17T01:40:03.269Z,8.87
2018-09-17T01:42:31.429Z,7.33
2018-09-17T01:44:59.586Z,7.47
2018-09-17T01:47:27.746Z,17.60
2018-09-17T01:49:55.928Z,8.70
2018-09-17T01:52:24.094Z,7.87
2018-09-17T01:54:52.269Z,11.40
2018-09-17T01:57:20.422Z,13.30
2018-09-17T01:59:48.658Z,9.20
2018-09-17T02:02:16.879Z,9.20
2018-09-17T02:04:45.041Z,7.77
2018-09-17T02:07:13.248Z,9.47
2018-09-17T02:09:41.919Z,6.50
2018-09-17T02:12:13.103Z,7.40
2018-09-17T02:14:42.009Z,7.57
2018-09-17T02:17:10.194Z,6.87
2018-09-17T02:19:38.908Z,8.63
2018-09-17T02:22:07.431Z,11.20
2018-09-17T02:24:35.605Z,7.27
2018-09-17T02:27:03.799Z,6.93
2018-09-17T02:29:31.965Z,5.90
2018-09-17T02:32:00.151Z,12.20
2018-09-17T02:34:28.331Z,6.67
2018-09-17T02:36:56.508Z,7.10
2018-09-17T02:39:24.665Z,7.83
2018-09-17T02:41:52.847Z,21.83
2018-09-17T02:44:21.022Z,8.70
2018-09-17T02:46:49.205Z,17.30
2018-09-17T02:49:17.378Z,11.47
2018-09-17T02:51:45.563Z,11.47
2018-09-17T02:54:13.734Z,9.37
2018-09-17T02:56:41.895Z,7.83
2018-09-17T02:59:10.066Z,10.20
2018-09-17T03:01:38.516Z,8.93
2018-09-17T03:04:06.689Z,8.67
2018-09-17T03:06:34.875Z,9.63
2018-09-17T03:09:03.527Z,16.93
2018-09-17T03:11:31.702Z,9.60
2018-09-17T03:13:59.885Z,11.43
2018-09-17T03:16:28.059Z,10.03
2018-09-17T03:18:57.430Z,11.00
2018-09-17T03:21:25.724Z,11.43
2018-09-17T03:23:54.340Z,7.77
2018-09-17T03:26:22.941Z,7.40
2018-09-17T03:28:51.119Z,7.60
2018-09-17T03:31:19.310Z,8.50
2018-09-17T03:33:47.491Z,10.70
2018-09-17T03:36:15.732Z,9.90
2018-09-17T03:38:47.114Z,14.30
2018-09-17T03:41:16.075Z,11.77
2018-09-17T03:43:45.760Z,8.10
2018-09-17T03:46:13.968Z,9.53
2018-09-17T03:48:42.357Z,12.43
2018-09-17T03:51:11.261Z,10.87
2018-09-17T03:53:39.690Z,12.40
2018-09-17T03:56:07.909Z,9.37
2018-09-17T03:58:36.085Z,9.00
2018-09-17T04:01:04.606Z,9.07
2018-09-17T04:03:32.815Z,12.30
2018-09-17T04:06:01.023Z,10.37
2018-09-17T04:08:30.825Z,10.27
2018-09-17T04:10:59.017Z,9.43
2018-09-17T04:13:27.201Z,10.60
2018-09-17T04:15:55.454Z,11.10
2018-09-17T04:18:23.659Z,10.90
2018-09-17T04:20:51.807Z,9.90
2018-09-17T04:23:29.533Z,10.00
2018-09-17T04:25:57.701Z,6.57
2018-09-17T04:28:25.891Z,6.60
2018-09-17T04:30:54.066Z,9.13
2018-09-17T04:33:22.238Z,6.70
2018-09-17T04:35:50.409Z,8.37
2018-09-17T04:38:18.607Z,8.33
2018-09-17T04:40:46.824Z,6.83
2018-09-17T04:43:15.009Z,10.00
2018-09-17T04:45:43.225Z,13.60
2018-09-17T04:48:11.424Z,10.00
2018-09-17T04:50:39.608Z,17.70
2018-09-17T04:53:07.803Z,9.10
2018-09-17T04:55:35.971Z,13.50
2018-09-17T04:58:04.149Z,11.73
2018-09-17T05:00:32.330Z,8.97
2018-09-17T05:03:00.485Z,8.03
2018-09-17T05:05:28.651Z,8.90
2018-09-17T05:07:56.793Z,8.77
2018-09-17T05:10:25.018Z,8.90
2018-09-17T05:12:53.226Z,8.60
2018-09-17T05:15:21.391Z,7.67
2018-09-17T05:17:49.542Z,8.53
2018-09-17T05:20:17.700Z,8.80
2018-09-17T05:22:45.841Z,8.03
2018-09-17T05:25:14.008Z,10.17
2018-09-17T05:27:42.165Z,8.07
2018-09-17T05:30:10.319Z,8.03
2018-09-17T05:32:38.466Z,13.47
2018-09-17T05:35:06.792Z,11.97
2018-09-17T05:37:34.821Z,8.57
2018-09-17T05:40:02.985Z,11.17
2018-09-17T05:42:31.230Z,10.23
2018-09-17T05:44:59.391Z,13.17
2018-09-17T05:47:27.537Z,9.80
2018-09-17T05:49:55.702Z,11.13
2018-09-17T05:52:23.849Z,10.90
2018-09-17T05:54:52.014Z,13.13
2018-09-17T05:57:20.161Z,10.07
2018-09-17T05:59:48.327Z,12.53
2018-09-17T06:02:16.513Z,12.20
2018-09-17T06:04:44.695Z,16.40
2018-09-17T06:07:12.898Z,18.37
2018-09-17T06:09:41.142Z,15.37
2018-09-17T06:12:09.255Z,16.53
2018-09-17T06:14:37.471Z,13.33
2018-09-17T06:17:05.620Z,13.40
2018-09-17T06:19:33.808Z,14.93
2018-09-17T06:22:01.991Z,14.10
2018-09-17T06:24:30.177Z,15.50
2018-09-17T06:26:58.338Z,14.67
2018-09-17T06:29:26.514Z,13.53
2018-09-17T06:31:54.687Z,13.43
2018-09-17T06:34:22.887Z,14.10
2018-09-17T06:36:51.084Z,12.30
2018-09-17T06:39:19.259Z,15.47
2018-09-17T06:41:47.430Z,16.10
2018-09-17T06:44:15.594Z,15.43
2018-09-17T06:46:43.761Z,14.93
2018-09-17T06:49:11.942Z,16.23
2018-09-17T06:51:40.110Z,23.70
2018-09-17T06:54:08.286Z,19.47
2018-09-17T06:56:36.479Z,21.50
2018-09-17T06:59:04.645Z,23.93
2018-09-17T07:01:32.875Z,20.60
2018-09-17T07:04:01.054Z,20.20
2018-09-17T07:06:29.228Z,21.47
2018-09-17T07:08:57.394Z,20.90
2018-09-17T07:11:25.566Z,22.70
2018-09-17T07:13:53.732Z,26.27
2018-09-17T07:16:21.927Z,22.47
2018-09-17T07:18:50.087Z,22.37
2018-09-17T07:21:18.271Z,23.07
2018-09-17T07:23:46.443Z,25.93
2018-09-17T07:26:14.625Z,24.27
2018-09-17T07:28:42.781Z,26.47
2018-09-17T07:31:10.974Z,22.33
2018-09-17T07:33:39.138Z,31.33
2018-09-17T07:36:07.358Z,31.87
2018-09-17T07:38:35.498Z,37.23
2018-09-17T07:41:03.674Z,39.00
2018-09-17T07:43:31.861Z,31.35
2018-09-17T07:46:00.078Z,29.12
2018-09-17T07:48:28.261Z,30.23
2018-09-17T07:50:56.434Z,40.08
2018-09-17T07:53:24.603Z,28.93
2018-09-17T07:55:52.791Z,34.70
2018-09-17T07:58:20.991Z,32.63
2018-09-17T08:00:49.157Z,33.00
2018-09-17T08:03:17.366Z,27.93
2018-09-17T08:05:45.603Z,28.57
2018-09-17T08:08:13.792Z,30.10
2018-09-17T08:10:41.962Z,28.13
2018-09-17T08:13:10.139Z,26.43
2018-09-17T08:15:38.318Z,29.20
2018-09-17T08:18:06.500Z,26.73
2018-09-17T11:34:31.176Z,10.60
2018-09-17T11:36:59.335Z,6.80
2018-09-17T11:39:27.518Z,6.37
2018-09-17T11:41:55.698Z,10.30
2018-09-17T11:44:23.866Z,6.80
2018-09-17T11:46:52.071Z,9.50
2018-09-17T11:49:20.220Z,6.77
2018-09-17T11:51:48.396Z,7.17
2018-09-17T11:54:16.574Z,6.70
2018-09-17T11:56:44.766Z,7.10
2018-09-17T11:59:12.937Z,6.27
2018-09-17T12:01:46.617Z,22.67
2018-09-17T12:04:16.496Z,6.10
2018-09-17T12:06:50.067Z,7.20
2018-09-17T12:09:18.278Z,11.63
2018-09-17T12:11:46.422Z,6.60
2018-09-17T12:14:14.589Z,7.03
2018-09-17T12:16:42.782Z,8.03
2018-09-17T12:19:10.946Z,5.70
2018-09-17T12:21:39.130Z,9.20
2018-09-17T12:24:07.293Z,18.70
2018-09-17T12:26:35.492Z,14.90
2018-09-17T12:29:03.674Z,8.70
2018-09-17T12:31:32.209Z,7.58
2018-09-17T12:34:00.511Z,6.35
2018-09-17T12:36:28.611Z,11.15
2018-09-17T12:38:56.790Z,6.60
2018-09-17T12:41:24.990Z,6.83
2018-09-17T12:43:53.170Z,7.62
2018-09-17T12:46:21.349Z,6.80
2018-09-17T12:48:49.540Z,6.28
2018-09-17T12:51:17.804Z,8.75
2018-09-17T12:53:45.989Z,11.53
2018-09-17T12:56:14.157Z,7.53
2018-09-17T12:58:42.356Z,7.25
2018-09-17T13:01:10.527Z,6.10
2018-09-17T13:03:38.775Z,6.85
2018-09-17T13:06:06.957Z,8.08
2018-09-17T13:08:35.141Z,5.58
2018-09-17T13:11:03.337Z,5.95
2018-09-17T13:13:31.540Z,5.83
2018-09-17T13:15:59.729Z,5.58
2018-09-17T13:18:27.921Z,7.87
2018-09-17T13:20:56.157Z,10.13
2018-09-17T13:23:24.357Z,6.05
2018-09-17T13:25:52.546Z,6.10
2018-09-17T13:28:20.753Z,7.12
2018-09-17T13:30:48.988Z,8.13
2018-09-17T13:33:17.188Z,5.93
2018-09-17T13:35:45.362Z,8.45
2018-09-17T13:38:13.573Z,5.58
2018-09-17T13:40:41.735Z,11.83
2018-09-17T13:43:09.928Z,7.92
2018-09-17T13:45:38.374Z,5.70
2018-09-17T13:48:06.602Z,5.10
2018-09-17T13:50:34.769Z,6.00
2018-09-17T13:53:02.983Z,5.30
2018-09-17T13:55:31.176Z,5.00
2018-09-17T13:57:59.375Z,7.63
2018-09-17T14:00:27.558Z,5.22
2018-09-17T14:02:55.765Z,9.80
2018-09-17T14:05:23.930Z,5.87
2018-09-17T14:07:52.157Z,6.65
2018-09-17T14:10:20.469Z,5.50
2018-09-17T14:12:48.534Z,6.33
2018-09-17T14:15:16.746Z,7.33
2018-09-17T15:21:45.036Z,5.13
2018-09-17T15:24:13.206Z,4.87
2018-09-17T15:26:41.398Z,5.97
2018-09-17T15:29:09.587Z,4.83
2018-09-17T15:31:37.755Z,30.17
2018-09-17T15:34:05.970Z,33.17
2018-09-17T15:36:34.142Z,6.07
2018-09-17T15:39:03.006Z,5.47
2018-09-17T15:41:31.266Z,13.47
2018-09-17T15:43:59.358Z,5.47
2018-09-17T15:46:27.533Z,7.60
2018-09-17T15:48:55.697Z,6.50
2018-09-17T15:51:23.870Z,4.63
2018-09-17T15:53:52.044Z,5.00
2018-09-17T15:56:20.324Z,6.70
2018-09-17T15:58:48.385Z,6.73
2018-09-17T16:01:16.568Z,10.30
2018-09-17T16:03:44.738Z,5.30
2018-09-17T16:06:12.914Z,5.63
2018-09-17T16:08:41.158Z,16.80
2018-09-17T16:11:09.283Z,5.50
2018-09-17T16:13:37.455Z,22.43
2018-09-17T16:16:05.633Z,11.40
2018-09-17T16:18:33.826Z,20.03
2018-09-17T16:21:02.003Z,11.03
2018-09-17T16:23:30.171Z,6.93
2018-09-17T16:25:58.381Z,7.20
2018-09-17T16:28:26.559Z,6.23
2018-09-17T16:30:54.987Z,11.03
2018-09-17T16:33:23.201Z,16.90
2018-09-17T16:35:51.360Z,8.03
2018-09-17T16:38:19.517Z,7.80
2018-09-17T16:40:47.726Z,13.03
2018-09-17T16:43:15.888Z,11.73
2018-09-17T16:45:44.050Z,7.10
2018-09-17T16:48:12.217Z,10.53
2018-09-17T16:50:40.399Z,8.13
2018-09-17T17:05:26.018Z,10.40
2018-09-17T17:07:54.195Z,5.80
2018-09-17T17:10:22.370Z,17.67
2018-09-17T17:52:10.433Z,7.78
2018-09-17T17:54:38.686Z,7.27
2018-09-17T17:57:06.734Z,10.80
2018-09-17T17:59:34.920Z,8.80
2018-09-17T18:02:03.090Z,6.70
2018-09-17T18:04:31.411Z,8.03
2018-09-17T18:06:59.646Z,10.23
2018-09-17T18:09:27.940Z,6.97
2018-09-17T18:11:55.994Z,6.60
2018-09-17T18:14:24.179Z,8.50
2018-09-17T18:16:52.353Z,11.23
2018-09-17T18:21:48.033Z,6.40
2018-09-17T18:24:16.203Z,10.13
2018-09-17T18:26:44.443Z,7.90
2018-09-17T18:29:12.559Z,7.83
2018-09-17T18:46:26.129Z,13.43
2018-09-17T18:48:54.651Z,9.80
2018-09-17T18:51:22.896Z,7.07
2018-09-17T18:53:51.018Z,11.80
2018-09-17T18:56:19.223Z,7.07
2018-09-17T18:58:47.491Z,8.00
2018-09-17T19:01:15.671Z,7.83
2018-09-17T19:03:43.881Z,17.30
2018-09-17T19:06:12.098Z,8.07
2018-09-17T19:08:40.204Z,8.13
2018-09-17T19:11:08.377Z,9.60
2018-09-17T19:13:36.552Z,10.83
2018-09-17T19:16:04.709Z,9.20
2018-09-17T19:18:32.874Z,8.53
2018-09-17T19:21:01.384Z,11.30
2018-09-17T19:23:34.597Z,12.57
2018-09-17T19:26:02.834Z,10.20
2018-09-17T19:28:36.503Z,9.33
2018-09-17T19:31:04.687Z,8.07
2018-09-17T19:33:32.857Z,8.50
2018-09-17T19:36:01.174Z,7.63
2018-09-17T19:38:34.753Z,8.60
2018-09-17T19:41:02.986Z,8.67
2018-09-17T19:43:31.152Z,8.37
2018-09-17T19:46:04.660Z,12.40
2018-09-17T19:48:32.802Z,12.37
2018-09-17T19:51:06.277Z,8.03
2018-09-17T19:53:34.452Z,11.80
2018-09-17T19:56:02.752Z,10.33
2018-09-17T19:58:36.310Z,9.80
2018-09-17T20:01:04.492Z,8.80
2018-09-17T20:03:32.662Z,13.67
2018-09-17T20:06:06.386Z,14.80
2018-09-17T20:08:34.658Z,11.33
2018-09-17T20:11:02.836Z,8.50
2018-09-17T20:13:31.002Z,17.10
2018-09-17T20:16:01.422Z,18.90
2018-09-17T20:18:30.133Z,11.40
2018-09-17T20:20:58.403Z,9.20
2018-09-17T20:23:26.676Z,17.60
2018-09-17T20:25:55.134Z,8.77
2018-09-17T20:28:23.441Z,11.23
2018-09-17T20:30:51.699Z,13.30
2018-09-17T20:33:20.759Z,10.43
2018-09-17T20:35:48.959Z,8.90
2018-09-17T20:38:17.191Z,12.60
2018-09-17T20:40:45.290Z,8.63
2018-09-17T20:43:13.455Z,11.03
2018-09-17T20:45:41.635Z,12.30
2018-09-17T20:48:09.958Z,10.00
2018-09-17T20:50:38.145Z,14.40
2018-09-17T20:53:06.415Z,19.80
2018-09-17T20:55:34.683Z,11.80
2018-09-17T20:58:03.033Z,17.73
2018-09-17T21:00:31.214Z,10.97
2018-09-17T21:02:59.379Z,11.23
2018-09-17T21:05:27.572Z,28.43
2018-09-17T21:07:55.742Z,11.43
2018-09-17T21:10:23.975Z,17.13
2018-09-17T21:12:52.158Z,10.13
2018-09-17T21:15:20.334Z,8.33
2018-09-17T21:17:48.499Z,9.30
2018-09-17T21:20:16.690Z,12.10
2018-09-17T21:22:44.871Z,12.07
2018-09-17T21:25:13.067Z,9.70
2018-09-17T21:27:41.214Z,8.80
2018-09-17T21:30:09.482Z,8.27
2018-09-17T21:32:37.670Z,29.83
2018-09-17T21:35:05.869Z,20.80
2018-09-17T21:37:34.047Z,9.57
2018-09-17T21:40:02.223Z,9.00
2018-09-17T21:42:30.395Z,15.30
2018-09-17T21:44:58.567Z,8.30
2018-09-17T21:47:26.742Z,9.90
2018-09-17T21:49:54.926Z,12.57
2018-09-17T21:52:23.959Z,13.50
2018-09-17T21:54:52.111Z,8.93
2018-09-17T21:57:20.287Z,7.67
2018-09-17T21:59:48.450Z,10.60
2018-09-17T22:02:16.616Z,12.00
2018-09-17T22:04:44.782Z,8.63
2018-09-17T22:07:12.976Z,8.47
2018-09-17T22:09:41.223Z,8.43
2018-09-17T22:12:09.411Z,21.80
2018-09-17T22:14:37.594Z,23.30
2018-09-17T22:17:05.856Z,8.00
2018-09-17T22:19:34.035Z,10.20
2018-09-17T22:22:02.231Z,10.47
2018-09-17T22:24:30.384Z,13.10
2018-09-17T22:26:58.548Z,8.57
2018-09-17T22:29:26.723Z,10.90
2018-09-17T22:31:54.897Z,11.30
2018-09-17T22:34:23.078Z,11.33
2018-09-17T22:36:51.604Z,9.00
2018-09-17T22:39:19.778Z,11.47
2018-09-17T22:41:47.971Z,10.10
2018-09-17T22:44:16.141Z,15.57
2018-09-17T22:46:44.321Z,24.07
2018-09-17T22:49:12.478Z,10.33
2018-09-17T22:51:40.670Z,8.53
2018-09-17T22:54:08.825Z,8.83
2018-09-17T22:56:37.006Z,11.73
2018-09-17T22:59:05.284Z,11.83
2018-09-17T23:01:33.455Z,9.30
2018-09-17T23:04:01.613Z,10.00
2018-09-17T23:06:29.780Z,14.30
2018-09-17T23:08:57.959Z,9.50
2018-09-17T23:11:26.125Z,9.83
2018-09-17T23:13:54.317Z,11.00
2018-09-17T23:16:22.477Z,8.40
2018-09-17T23:18:50.649Z,8.70
2018-09-17T23:21:18.806Z,6.77
2018-09-17T23:23:46.977Z,12.10
2018-09-17T23:26:15.146Z,9.67
2018-09-17T23:28:43.323Z,22.63
2018-09-17T23:31:11.521Z,10.40
2018-09-17T23:33:39.695Z,9.87
2018-09-17T23:36:07.981Z,12.13
2018-09-17T23:38:36.186Z,8.73
2018-09-17T23:41:04.483Z,9.00
2018-09-17T23:43:32.808Z,9.30
2018-09-17T23:46:01.003Z,13.10
2018-09-17T23:48:29.157Z,14.77
2018-09-17T23:50:57.335Z,16.53
2018-09-17T23:53:25.497Z,9.57
2018-09-17T23:55:53.675Z,10.70
2018-09-17T23:58:21.838Z,6.97
